Thunder radar more information blitzortung!


avis per Pluja more information rain snow radar


Visita la nostra xarxa de llocs de meteo:

Template documentation
and downloads

And another site



Rain From: 17-10-2018 23:00 Until: 18-10-2018 16:59 warning for: Rain Level: Yellow info button

Pagina Historial Weather Underground text

Diari Resum Agost 9, 2017 Unitats:  Imperial    Mètric   Tant
« Previous Dia
SegĂźent Dia »
Diari Setmana Mensual Anual Personalitzada
  Maxima: Minima: Media:
Temperatura: TemperatureC °F 15.0 °F 21.5 °F
Punt de rosada: DewpointC °F 10.3 °F 13.9 °F
Humitat: Humidity % 46 % 63 %
Wind Speed: WindSpeedKMH mph 0.0 mph 5.4 mph
RĂ fegues de vent: WindSpeedGustKMH mph - -
Vent:- - South
Pression baro: PressurehPa in 1013.8 in -
Precipitacions: 7.9 in    
Historical Graphs
 
 
Dades de taula per Agost 9, 2017
Temps Temperatura Punt de rosada Pression baro Vent Wind Speed RĂ fegues de vent Humitat Rainfall Rate (Hourly)
TemperatureC °F DewpointC °F PressurehPa in Calm     Humidity % HourlyPrecipMM in
00:00 19.4 °F 13.6 °F 1013.8 in Calm     69 % 0.0 in
00:02 21.6 °F 15.2 °F 1014.8 in Calm     67 % 0.0 in
00:07 21.5 °F 15.1 °F 1014.8 in Calm     67 % 0.0 in
00:10 19.2 °F 13.6 °F 1013.8 in Calm   1.6 mph 70 % 0.0 in
00:20 19.2 °F 13.4 °F 1013.8 in Calm   1.6 mph 69 % 0.0 in
00:30 19.2 °F 13.4 °F 1013.8 in SW 1.6 mph 1.6 mph 69 % 0.0 in
00:40 19.3 °F 13.7 °F 1013.8 in Calm   3.2 mph 70 % 0.0 in
00:50 19.2 °F 13.6 °F 1013.8 in Calm   1.6 mph 70 % 0.0 in
01:00 19.2 °F 13.6 °F 1013.8 in WSW 1.6 mph 3.2 mph 70 % 0.0 in
01:10 19.4 °F 13.8 °F 1013.8 in Calm   3.2 mph 70 % 0.0 in
01:20 19.5 °F 13.2 °F 1014.8 in North 4.8 mph 6.4 mph 67 % 0.0 in
01:30 19.3 °F 12.3 °F 1014.8 in NNE 1.6 mph 4.8 mph 64 % 0.0 in
01:40 19.1 °F 11.9 °F 1014.8 in NNE 1.6 mph 4.8 mph 63 % 0.0 in
01:50 19.0 °F 11.8 °F 1014.8 in NNE 1.6 mph 3.2 mph 63 % 0.0 in
02:00 18.8 °F 11.8 °F 1014.8 in NNE 1.6 mph 3.2 mph 64 % 0.0 in
02:10 18.7 °F 11.7 °F 1013.8 in Calm   1.6 mph 64 % 0.0 in
02:20 18.5 °F 11.6 °F 1014.8 in Calm     64 % 0.0 in
02:30 18.9 °F 11.9 °F 1014.8 in Calm   3.2 mph 64 % 0.0 in
02:40 19.0 °F 11.6 °F 1014.8 in NE 1.6 mph 1.6 mph 62 % 0.0 in
02:50 18.8 °F 11.4 °F 1014.8 in NE 1.6 mph 3.2 mph 62 % 0.0 in
03:00 19.0 °F 11.3 °F 1014.8 in NNE 1.6 mph 3.2 mph 61 % 0.0 in
03:10 19.8 °F 11.8 °F 1014.8 in NNE 1.6 mph 3.2 mph 60 % 0.0 in
03:20 19.8 °F 11.6 °F 1014.8 in NNE 1.6 mph 3.2 mph 59 % 0.0 in
03:30 20.2 °F 11.4 °F 1014.8 in NNE 1.6 mph 3.2 mph 57 % 0.0 in
03:40 20.6 °F 11.5 °F 1014.8 in NNE 3.2 mph 4.8 mph 56 % 0.0 in
03:50 20.5 °F 11.2 °F 1014.8 in NE 4.8 mph 6.4 mph 55 % 0.0 in
04:00 21.3 °F 11.3 °F 1014.8 in NE 1.6 mph 6.4 mph 53 % 0.0 in
04:10 21.6 °F 11.6 °F 1014.8 in NE 1.6 mph 3.2 mph 53 % 0.0 in
04:20 21.8 °F 11.5 °F 1014.8 in NNE 3.2 mph 3.2 mph 52 % 0.0 in
04:30 21.2 °F 10.3 °F 1014.8 in ENE 3.2 mph 6.4 mph 50 % 0.0 in
04:40 22.5 °F 11.8 °F 1014.8 in ENE 1.6 mph 4.8 mph 51 % 0.0 in
04:50 22.4 °F 11.4 °F 1014.8 in Calm   6.4 mph 50 % 0.0 in
05:00 22.9 °F 11.6 °F 1014.8 in ENE 3.2 mph 4.8 mph 49 % 0.0 in
05:10 22.8 °F 11.5 °F 1014.8 in ESE 1.6 mph 4.8 mph 49 % 0.0 in
05:20 22.8 °F 11.5 °F 1014.8 in NW 1.6 mph 3.2 mph 49 % 0.0 in
10:29 24.2 °F 12.5 °F 1014.8 in NE 3.7 mph 5.0 mph 48 % 0.0 in
10:30 24.2 °F 12.5 °F 1014.8 in NE 7.4 mph 7.4 mph 48 % 0.0 in
10:33 23.6 °F 11.6 °F 1014.8 in East 5.6 mph 5.6 mph 47 % 0.0 in
10:38 24.4 °F 12.7 °F 1014.8 in South 5.6 mph 5.6 mph 48 % 0.0 in
10:43 24.3 °F 12.6 °F 1014.8 in SW 9.3 mph 9.3 mph 48 % 0.0 in
10:44 24.1 °F 12.4 °F 1014.8 in WSW 7.4 mph 7.4 mph 48 % 0.0 in
10:49 24.1 °F 12.4 °F 1014.8 in WSW 5.3 mph 5.3 mph 48 % 0.0 in
10:54 24.2 °F 12.2 °F 1014.8 in SSW 3.7 mph 3.7 mph 47 % 0.0 in
10:59 24.3 °F 12.6 °F 1014.8 in West 1.9 mph   48 % 0.0 in
11:04 24.4 °F 12.7 °F 1014.8 in West 7.4 mph 7.4 mph 48 % 0.0 in
11:09 24.2 °F 12.5 °F 1014.8 in ENE 2.3 mph 2.3 mph 48 % 0.0 in
11:14 24.3 °F 12.6 °F 1014.8 in SW 1.9 mph 1.9 mph 48 % 0.0 in
11:19 24.3 °F 12.6 °F 1014.8 in NNW 3.7 mph 3.7 mph 48 % 0.0 in
11:24 24.2 °F 12.5 °F 1014.8 in NE 3.9 mph 3.9 mph 48 % 0.0 in
11:29 24.2 °F 12.2 °F 1014.8 in SSW 3.7 mph 3.7 mph 47 % 0.0 in
11:34 24.6 °F 13.2 °F 1014.8 in SW 9.3 mph 9.3 mph 49 % 0.0 in
11:39 24.9 °F 13.4 °F 1014.8 in SSE 9.3 mph 9.3 mph 49 % 0.0 in
11:44 24.7 °F 13.3 °F 1014.8 in WSW 5.6 mph 5.6 mph 49 % 0.0 in
11:49 24.9 °F 13.4 °F 1014.8 in SSW 9.3 mph 9.3 mph 49 % 0.0 in
11:54 25.2 °F 13.7 °F 1014.8 in West 7.4 mph 7.4 mph 49 % 0.0 in
11:59 25.1 °F 13.6 °F 1014.8 in SW 9.3 mph 9.3 mph 49 % 0.0 in
12:04 25.4 °F 13.6 °F 1014.8 in South 10.0 mph 10.0 mph 48 % 0.0 in
12:09 25.1 °F 13.3 °F 1014.8 in SSW 9.3 mph 9.3 mph 48 % 0.0 in
12:14 25.2 °F 13.7 °F 1014.8 in WSW 7.4 mph 7.4 mph 49 % 0.0 in
12:19 25.2 °F 13.4 °F 1014.8 in West 7.4 mph 7.4 mph 48 % 0.0 in
12:24 26.0 °F 14.1 °F 1014.8 in WNW 9.3 mph 9.3 mph 48 % 0.0 in
12:29 26.5 °F 14.6 °F 1014.8 in SW 7.4 mph 7.4 mph 48 % 0.0 in
12:34 26.3 °F 14.4 °F 1014.8 in WSW 9.3 mph 9.3 mph 48 % 0.0 in
12:39 26.9 °F 14.9 °F 1014.8 in SSW 9.3 mph 9.3 mph 48 % 0.0 in
12:44 26.9 °F 14.6 °F 1014.8 in SSW 9.3 mph 9.3 mph 47 % 0.0 in
12:49 27.4 °F 15.1 °F 1013.8 in West 8.7 mph 8.7 mph 47 % 0.0 in
12:54 27.1 °F 14.5 °F 1013.8 in SW 9.3 mph 9.3 mph 46 % 0.0 in
12:59 26.9 °F 14.6 °F 1013.8 in SSW 7.4 mph 7.4 mph 47 % 0.0 in
13:04 26.6 °F 14.7 °F 1013.8 in WSW 11.9 mph 11.9 mph 48 % 0.0 in
13:09 26.4 °F 14.5 °F 1013.8 in WSW 10.3 mph 10.3 mph 48 % 0.0 in
13:14 26.1 °F 14.2 °F 1013.8 in SW 11.1 mph 11.1 mph 48 % 0.0 in
13:19 26.0 °F 14.1 °F 1013.8 in SSW 5.6 mph 6.1 mph 48 % 0.0 in
13:24 26.0 °F 14.1 °F 1013.8 in WSW 6.1 mph 6.1 mph 48 % 0.0 in
13:29 25.9 °F 14.4 °F 1013.8 in SW 9.3 mph 9.3 mph 49 % 0.0 in
13:34 26.1 °F 14.6 °F 1013.8 in SW 5.8 mph 5.8 mph 49 % 0.0 in
13:39 26.4 °F 14.8 °F 1013.8 in SSW 5.6 mph 5.6 mph 49 % 0.0 in
13:44 26.2 °F 14.7 °F 1013.8 in SSW 14.0 mph 14.0 mph 49 % 0.0 in
13:49 27.1 °F 15.2 °F 1013.8 in SW 11.1 mph 11.1 mph 48 % 0.0 in
13:54 26.8 °F 15.2 °F 1013.8 in WSW 12.2 mph 12.2 mph 49 % 0.0 in
13:59 26.9 °F 15.3 °F 1013.8 in WSW 14.8 mph 14.8 mph 49 % 0.0 in
14:04 26.6 °F 15.0 °F 1014.8 in SW 14.8 mph 14.8 mph 49 % 0.0 in
14:09 26.8 °F 15.2 °F 1014.8 in SW 14.5 mph 14.5 mph 49 % 0.0 in
14:14 26.5 °F 14.9 °F 1014.8 in WSW 9.7 mph 9.7 mph 49 % 0.0 in
14:19 26.8 °F 15.2 °F 1013.8 in SSW 9.3 mph 9.3 mph 49 % 0.0 in
14:24 26.8 °F 15.2 °F 1013.8 in WNW 14.8 mph 14.8 mph 49 % 0.0 in
14:29 26.8 °F 15.2 °F 1013.8 in SSE 11.1 mph 11.1 mph 49 % 0.0 in
14:34 27.0 °F 15.1 °F 1013.8 in SW 4.2 mph 4.2 mph 48 % 0.0 in
14:39 27.0 °F 15.1 °F 1013.8 in WSW 3.7 mph 3.7 mph 48 % 0.0 in
14:44 27.2 °F 15.2 °F 1013.8 in SSW 9.3 mph 9.3 mph 48 % 0.0 in
14:49 27.5 °F 15.8 °F 1013.8 in SW 7.4 mph 7.4 mph 49 % 0.0 in
14:54 27.4 °F 15.4 °F 1013.8 in West 7.4 mph 7.4 mph 48 % 0.0 in
14:59 27.2 °F 15.2 °F 1013.8 in SW 12.2 mph 12.2 mph 48 % 0.0 in
15:04 27.4 °F 15.4 °F 1013.8 in SSE 5.6 mph 5.6 mph 48 % 0.0 in
15:09 26.8 °F 15.2 °F 1013.8 in SW 13.0 mph 13.0 mph 49 % 0.0 in
15:14 26.6 °F 15.0 °F 1013.8 in SSW 9.3 mph 9.3 mph 49 % 0.0 in
15:19 26.6 °F 15.0 °F 1013.8 in SW 13.0 mph 13.0 mph 49 % 0.0 in
15:24 26.6 °F 15.0 °F 1013.8 in SW 11.1 mph 11.1 mph 49 % 0.0 in
15:29 26.9 °F 15.3 °F 1013.8 in West 11.1 mph 11.1 mph 49 % 0.0 in
15:34 26.7 °F 15.1 °F 1014.8 in SW 13.0 mph 13.0 mph 49 % 0.0 in
15:39 27.3 °F 15.3 °F 1014.8 in South 11.1 mph 11.1 mph 48 % 0.0 in
15:44 27.7 °F 15.7 °F 1014.8 in WSW 13.0 mph 13.0 mph 48 % 0.0 in
15:49 27.3 °F 15.3 °F 1013.8 in SW 14.0 mph 14.0 mph 48 % 0.0 in
15:54 27.3 °F 15.3 °F 1013.8 in NNE 10.3 mph 10.3 mph 48 % 0.0 in
15:59 27.4 °F 15.4 °F 1013.8 in SW 5.6 mph 5.6 mph 48 % 0.0 in
16:04 27.4 °F 15.4 °F 1014.8 in SSW 13.0 mph 13.0 mph 48 % 0.0 in
16:09 27.5 °F 15.2 °F 1014.8 in SW 7.4 mph 7.4 mph 47 % 0.0 in
16:14 26.9 °F 15.3 °F 1014.8 in SSW 9.3 mph 9.3 mph 49 % 0.0 in
16:19 27.2 °F 15.2 °F 1013.8 in WSW 6.1 mph 6.1 mph 48 % 0.0 in
16:24 27.3 °F 15.3 °F 1013.8 in SSE 4.7 mph 4.7 mph 48 % 0.0 in
16:29 27.1 °F 15.2 °F 1013.8 in West 5.6 mph 5.6 mph 48 % 0.0 in
16:34 27.0 °F 15.1 °F 1013.8 in SW 9.3 mph 9.3 mph 48 % 0.0 in
16:39 26.5 °F 14.9 °F 1013.8 in SW 11.1 mph 11.1 mph 49 % 0.0 in
16:44 26.7 °F 15.1 °F 1013.8 in SSE 7.4 mph 7.4 mph 49 % 0.0 in
16:49 25.9 °F 14.4 °F 1013.8 in SSW 7.4 mph 7.4 mph 49 % 0.0 in
16:54 26.0 °F 14.4 °F 1013.8 in SSE 5.6 mph 5.6 mph 49 % 0.0 in
16:59 25.5 °F 14.3 °F 1013.8 in ESE 9.3 mph 9.3 mph 50 % 0.0 in
17:04 25.4 °F 14.2 °F 1013.8 in SSE 6.4 mph 6.4 mph 50 % 0.0 in
17:09 24.9 °F 14.1 °F 1013.8 in South 13.0 mph 13.0 mph 51 % 0.0 in
17:14 24.7 °F 13.9 °F 1013.8 in SSW 13.0 mph 13.0 mph 51 % 0.0 in
17:19 24.6 °F 14.1 °F 1013.8 in ESE 5.6 mph 5.6 mph 52 % 0.0 in
17:24 24.6 °F 14.1 °F 1013.8 in SSE 7.4 mph 7.4 mph 52 % 0.0 in
17:29 24.4 °F 13.9 °F 1013.8 in ESE 3.7 mph 3.7 mph 52 % 0.0 in
17:34 24.2 °F 13.7 °F 1014.8 in ESE 3.7 mph 3.7 mph 52 % 0.0 in
17:39 23.9 °F 13.4 °F 1014.8 in ESE 11.1 mph 11.1 mph 52 % 0.0 in
17:44 23.8 °F 13.3 °F 1014.8 in ESE 9.3 mph 9.3 mph 52 % 0.0 in
17:49 23.7 °F 13.6 °F 1014.8 in North 9.3 mph 9.3 mph 53 % 0.0 in
17:54 23.7 °F 13.6 °F 1014.8 in ENE 9.3 mph 9.3 mph 53 % 0.0 in
17:59 23.5 °F 13.4 °F 1014.8 in NE 11.1 mph 11.1 mph 53 % 0.0 in
18:04 23.4 °F 13.3 °F 1014.8 in North 14.8 mph 14.8 mph 53 % 0.0 in
18:09 23.1 °F 13.6 °F 1014.8 in ESE 13.0 mph 13.0 mph 55 % 0.0 in
18:14 22.6 °F 13.7 °F 1014.8 in East 14.8 mph 14.8 mph 57 % 0.0 in
18:19 22.2 °F 13.6 °F 1014.8 in East 11.1 mph 11.1 mph 58 % 0.0 in
18:24 22.1 °F 13.7 °F 1014.8 in ESE 13.7 mph 13.7 mph 59 % 0.0 in
18:29 22.1 °F 13.9 °F 1014.8 in SE 10.0 mph 10.0 mph 60 % 0.0 in
18:34 21.9 °F 14.1 °F 1013.8 in ESE 9.3 mph 9.3 mph 61 % 0.0 in
18:35 21.9 °F 14.1 °F 1013.8 in SE 7.6 mph 7.6 mph 61 % 0.0 in
18:40 22.0 °F 13.6 °F 1013.8 in ESE 14.8 mph 14.8 mph 59 % 0.0 in
18:45 22.0 °F 13.6 °F 1014.8 in ENE 13.7 mph 13.7 mph 59 % 0.0 in
18:50 22.0 °F 13.3 °F 1014.8 in ESE 14.8 mph 14.8 mph 58 % 0.0 in
18:55 21.7 °F 13.8 °F 1014.8 in East 7.4 mph 7.4 mph 61 % 0.0 in
19:00 21.2 °F 13.9 °F 1014.8 in WNW 7.4 mph 7.4 mph 63 % 0.0 in
19:05 20.3 °F 13.7 °F 1014.8 in SW 9.3 mph 9.3 mph 66 % 1.0 in
19:10 20.0 °F 13.9 °F 1014.8 in WSW 7.4 mph 7.4 mph 68 % 1.0 in
19:15 19.7 °F 14.5 °F 1015.8 in North 3.7 mph 3.7 mph 72 % 1.0 in
19:20 19.6 °F 14.6 °F 1015.8 in West 3.7 mph 3.7 mph 73 % 1.0 in
19:25 19.6 °F 14.8 °F 1015.8 in NNW 3.7 mph 3.7 mph 74 % 1.0 in
19:30 19.3 °F 14.6 °F 1015.8 in NW 3.7 mph 3.7 mph 74 % 1.0 in
19:35 19.2 °F 14.7 °F 1015.8 in WSW 1.9 mph 2.6 mph 75 % 1.0 in
19:40 19.0 °F 14.4 °F 1015.8 in NW 3.9 mph 3.9 mph 75 % 1.0 in
19:45 18.9 °F 14.8 °F 1015.8 in WNW 5.6 mph 5.6 mph 77 % 1.0 in
19:50 18.8 °F 14.9 °F 1015.8 in West 1.9 mph 1.9 mph 78 % 1.0 in
19:55 18.7 °F 14.8 °F 1015.8 in North 5.6 mph 5.6 mph 78 % 1.0 in
20:00 18.7 °F 15.0 °F 1015.8 in NNW 1.9 mph   79 % 1.0 in
20:05 18.7 °F 15.0 °F 1015.8 in ESE 2.3 mph 2.3 mph 79 % 0.0 in
20:10 18.7 °F 15.0 °F 1015.8 in WNW 1.9 mph 1.9 mph 79 % 0.0 in
20:15 18.6 °F 14.9 °F 1015.8 in West 1.9 mph 1.9 mph 79 % 0.0 in
20:20 18.6 °F 15.3 °F 1015.8 in Calm     81 % 0.0 in
20:25 18.5 °F 15.2 °F 1015.8 in Calm     81 % 0.0 in
20:26 18.5 °F 15.2 °F 1015.8 in Calm     81 % 0.0 in
20:30 16.4 °F 14.6 °F 1017.8 in Calm     89 % 0.0 in
20:31 18.5 °F 15.2 °F 1015.8 in Calm     81 % 0.0 in
20:36 18.4 °F 15.1 °F 1015.8 in Calm     81 % 0.0 in
20:40 16.5 °F 14.8 °F 1017.8 in NE 3.2 mph 4.8 mph 90 % 0.0 in
20:41 18.2 °F 14.9 °F 1015.8 in SW 2.6 mph   81 % 0.0 in
20:46 18.2 °F 14.9 °F 1015.8 in WSW 1.9 mph   81 % 0.0 in
20:50 16.4 °F 14.6 °F 1017.8 in East 3.2 mph 4.8 mph 89 % 0.0 in
20:51 18.3 °F 15.0 °F 1015.8 in WSW 3.9 mph   81 % 0.0 in
20:56 18.4 °F 15.1 °F 1015.8 in SW 1.9 mph   81 % 0.0 in
21:00 16.3 °F 14.3 °F 1017.8 in SW 3.2 mph 4.8 mph 88 % 0.0 in
21:01 18.5 °F 15.2 °F 1016.8 in West 3.7 mph 3.7 mph 81 % 0.0 in
21:06 18.5 °F 15.6 °F 1016.8 in WSW 1.9 mph   83 % 0.0 in
21:10 16.3 °F 14.5 °F 1017.8 in Calm   3.2 mph 89 % 0.0 in
21:11 18.4 °F 15.3 °F 1016.8 in SW 3.7 mph 3.7 mph 82 % 0.0 in
21:16 18.5 °F 15.6 °F 1015.8 in NE 5.0 mph 5.0 mph 83 % 0.0 in
21:20 16.2 °F 14.2 °F 1017.8 in West 3.2 mph 3.2 mph 88 % 0.0 in
21:21 18.4 °F 15.4 °F 1015.8 in WNW 3.7 mph 3.7 mph 83 % 0.0 in
21:26 18.3 °F 15.4 °F 1015.8 in ENE 3.9 mph 3.9 mph 83 % 0.0 in
21:30 16.1 °F 14.1 °F 1017.8 in WSW 1.6 mph 4.8 mph 88 % 0.0 in
21:31 18.0 °F 14.9 °F 1016.8 in NNE 3.7 mph 3.7 mph 82 % 0.0 in
21:36 18.1 °F 15.2 °F 1016.8 in West 2.6 mph 2.6 mph 83 % 0.0 in
21:40 16.0 °F 14.0 °F 1018.8 in WSW 1.6 mph 4.8 mph 88 % 0.0 in
21:41 18.2 °F 15.3 °F 1016.8 in SW 3.7 mph 3.7 mph 83 % 0.0 in
21:46 17.9 °F 14.9 °F 1017.8 in SW 3.7 mph 3.7 mph 83 % 0.0 in
21:50 16.0 °F 14.2 °F 1018.8 in Calm   3.2 mph 89 % 0.0 in
21:51 17.6 °F 14.7 °F 1017.8 in WSW 3.7 mph 3.7 mph 83 % 0.0 in
21:56 17.6 °F 14.7 °F 1017.8 in SW 3.7 mph 3.7 mph 83 % 0.0 in
22:00 15.8 °F 13.8 °F 1018.8 in SW 3.2 mph 4.8 mph 88 % 0.0 in
22:01 17.5 °F 14.6 °F 1017.8 in SW 3.7 mph 3.7 mph 83 % 0.0 in
22:06 17.3 °F 14.4 °F 1017.8 in WSW 3.7 mph 3.7 mph 83 % 0.0 in
22:10 15.6 °F 13.4 °F 1017.8 in WSW 3.2 mph 6.4 mph 87 % 0.0 in
22:11 17.2 °F 14.3 °F 1017.8 in WSW 1.9 mph   83 % 0.0 in
22:16 17.0 °F 13.9 °F 1017.8 in SSW 3.7 mph 3.7 mph 82 % 0.0 in
22:20 15.4 °F 13.1 °F 1017.8 in WSW 4.8 mph 6.4 mph 86 % 0.0 in
22:21 16.9 °F 14.2 °F 1017.8 in WSW 3.7 mph 3.7 mph 84 % 0.0 in
22:26 16.8 °F 14.1 °F 1017.8 in Calm     84 % 0.0 in
22:30 15.3 °F 12.9 °F 1017.8 in West 1.6 mph 3.2 mph 86 % 0.0 in
22:31 16.7 °F 13.8 °F 1017.8 in SW 3.7 mph 3.9 mph 83 % 0.0 in
22:36 16.7 °F 14.0 °F 1017.8 in SW 3.7 mph   84 % 0.0 in
22:40 15.3 °F 13.2 °F 1017.8 in West 1.6 mph 4.8 mph 87 % 0.0 in
22:41 16.6 °F 13.7 °F 1017.8 in SW 5.6 mph 5.6 mph 83 % 0.0 in
22:46 16.7 °F 14.2 °F 1018.8 in Calm     85 % 0.0 in
22:50 15.3 °F 12.9 °F 1017.8 in West 1.6 mph 3.2 mph 86 % 0.0 in
22:51 16.7 °F 14.2 °F 1018.8 in Calm     85 % 0.0 in
22:56 16.5 °F 13.9 °F 1018.8 in Calm     85 % 0.0 in
23:00 15.3 °F 12.9 °F 1017.8 in WSW 3.2 mph 4.8 mph 86 % 0.0 in
23:01 16.5 °F 13.9 °F 1018.8 in WSW 2.3 mph 2.3 mph 85 % 0.0 in
23:06 16.5 °F 13.9 °F 1018.8 in SW 3.7 mph 3.7 mph 85 % 0.0 in
23:10 15.2 °F 12.7 °F 1017.8 in Calm   4.8 mph 85 % 0.0 in
23:11 16.5 °F 13.9 °F 1018.8 in Calm     85 % 0.0 in
23:16 16.5 °F 14.2 °F 1017.8 in WNW 3.7 mph 3.7 mph 86 % 0.0 in
23:20 15.3 °F 12.8 °F 1017.8 in Calm   1.6 mph 85 % 0.0 in
23:21 16.5 °F 14.2 °F 1017.8 in SW 1.4 mph 1.4 mph 86 % 0.0 in
23:26 16.5 °F 14.2 °F 1017.8 in WSW 1.9 mph   86 % 7.1 in
23:30 15.2 °F 12.7 °F 1017.8 in SW 1.6 mph 3.2 mph 85 % 0.0 in
23:31 16.5 °F 14.3 °F 1017.8 in Calm     87 % 7.1 in
23:36 16.5 °F 14.3 °F 1017.8 in Calm     87 % 7.1 in
23:40 15.0 °F 12.3 °F 1017.8 in SW 4.8 mph 4.8 mph 84 % 0.0 in
23:41 16.4 °F 14.2 °F 1017.8 in WSW 1.9 mph   87 % 7.1 in
23:46 16.4 °F 14.2 °F 1018.8 in Calm     87 % 7.1 in
23:50 15.0 °F 12.3 °F 1017.8 in WSW 1.6 mph 3.2 mph 84 % 0.0 in
23:51 16.4 °F 14.2 °F 1018.8 in Calm     87 % 7.1 in
23:56 16.3 °F 14.1 °F 1018.8 in NE 1.9 mph 1.9 mph 87 % 7.1 in
Meteo Sesrovires
Elogis d' Weather Underground - 1.5 mb

Guio original per  Jim McMurry - jmcmurry@mwt.net Adaptat per a la plantilla per  Wim van der Kuil - Leuven-Template.eu

Trobareu la nostra informacio del temps tambe a:

Weather Underground

AWEKAS